Allegheny County Airport
KAGC : now visible

Airfield :











YOU CAN JOIN US ON...

 
LOGIN :

Register | Disclaimer

   EN    FR    IT 

 









Legend :    VFR   Marginal VFR   IFR   Intensive IFR   Very Intensive IFR
Visi :
Ceiling :
>= 8 km
>= 3000ft
5 to 8 km
1000 to 3000 ft
1500m to 5 km
500 to 1000 ft
800 to 1500m
200 to 500 ft
< 800m
< 200 ft
Symbols :   Thunderstorms  Fog  Heavy snow  Heavy precipitations  Wind > 20 kt






- Airport Elevation : 1252 ft
- IATA code : AGC


KAGC - Allegheny County

CURRENT METAR :
  • 180553Z 17007KT 10SM CLR 16/09 A3004 RMK AO2 SLP171 T01560089 10233 20156 58004

EXPIRED METARs :
  • 180453Z 19006KT 10SM CLR 18/08 A3006 RMK AO2 SLP175 T01780083 402560083
  • 180353Z 21006KT 10SM CLR 19/08 A3006 RMK AO2 SLP177 T01940078
  • 180253Z 20005KT 10SM CLR 20/07 A3005 RMK AO2 SLP173 T02000072 53005

TAF KAGC
Valid from the 18 at 06:00 until the 19 at 06:00 UTC


180520Z 1806/1906 19004KT P6SM SKC
FM181500 20008G16KT P6SM BKN100
FM181900 20011G19KT P6SM VCTS BKN050CB
FM182300 22010G17KT 5SM -SHRA VCTS OVC035CB
FM190400 20010KT P6SM -SHRA OVC020
KZOB FIR / North America



MET'MAP, your aeronautical weather chart ! - Copyright ORBIFLY December 2007 - Disclaimer

ORBIFLY MET'MAP TEAM :

Programming & Development : Alexandra Zaïnal
Concept & original design : Baudouin d'Aumeries
Assistance for programming : Marc-Olivier Méhu
Technical & hardware support : Manuel Goepfert

Contact : metmap@orbifly.com




SOURCES & CREDITS :

   NOAA       Earth
Advisory